sensor_id;sensor_type;location;lat;lon;timestamp;P1;durP1;ratioP1;P2;durP2;ratioP2
30010;SDS011;16851;53.564;8.112;2022-08-19T00:04:50;11.73;;;10.15;;
30010;SDS011;16851;53.564;8.112;2022-08-19T00:09:54;13.63;;;10.55;;
30010;SDS011;16851;53.564;8.112;2022-08-19T00:15:00;12.82;;;9.13;;
30010;SDS011;16851;53.564;8.112;2022-08-19T00:20:07;11.52;;;10.32;;
30010;SDS011;16851;53.564;8.112;2022-08-19T00:25:12;10.77;;;9.77;;
30010;SDS011;16851;53.564;8.112;2022-08-19T00:30:16;12.20;;;8.98;;
30010;SDS011;16851;53.564;8.112;2022-08-19T00:35:18;13.05;;;9.10;;
30010;SDS011;16851;53.564;8.112;2022-08-19T00:40:20;10.57;;;9.25;;
30010;SDS011;16851;53.564;8.112;2022-08-19T00:45:23;11.93;;;9.02;;
30010;SDS011;16851;53.564;8.112;2022-08-19T00:50:27;12.07;;;9.20;;
30010;SDS011;16851;53.564;8.112;2022-08-19T00:55:29;9.13;;;8.23;;
30010;SDS011;16851;53.564;8.112;2022-08-19T01:00:32;12.57;;;8.15;;
30010;SDS011;16851;53.564;8.112;2022-08-19T01:05:43;7.97;;;7.10;;
30010;SDS011;16851;53.564;8.112;2022-08-19T01:10:57;10.93;;;8.20;;
30010;SDS011;16851;53.564;8.112;2022-08-19T01:16:04;11.73;;;7.72;;
30010;SDS011;16851;53.564;8.112;2022-08-19T01:21:30;8.35;;;5.90;;
30010;SDS011;16851;53.564;8.112;2022-08-19T01:26:41;7.65;;;6.40;;
30010;SDS011;16851;53.564;8.112;2022-08-19T01:31:47;9.13;;;6.20;;
30010;SDS011;16851;53.564;8.112;2022-08-19T01:36:53;8.27;;;6.50;;
30010;SDS011;16851;53.564;8.112;2022-08-19T01:41:55;7.50;;;5.05;;
30010;SDS011;16851;53.564;8.112;2022-08-19T01:47:02;6.95;;;4.43;;
30010;SDS011;16851;53.564;8.112;2022-08-19T01:52:05;7.47;;;4.88;;
30010;SDS011;16851;53.564;8.112;2022-08-19T01:57:11;6.63;;;4.63;;
30010;SDS011;16851;53.564;8.112;2022-08-19T02:02:21;7.57;;;4.63;;
30010;SDS011;16851;53.564;8.112;2022-08-19T02:07:25;5.68;;;4.32;;
30010;SDS011;16851;53.564;8.112;2022-08-19T02:12:31;7.13;;;4.88;;
30010;SDS011;16851;53.564;8.112;2022-08-19T02:17:33;6.75;;;4.78;;
30010;SDS011;16851;53.564;8.112;2022-08-19T02:22:35;6.78;;;5.35;;
30010;SDS011;16851;53.564;8.112;2022-08-19T02:27:37;7.50;;;4.95;;
30010;SDS011;16851;53.564;8.112;2022-08-19T02:32:44;6.13;;;4.93;;
30010;SDS011;16851;53.564;8.112;2022-08-19T02:37:50;7.20;;;4.28;;
30010;SDS011;16851;53.564;8.112;2022-08-19T02:43:10;6.72;;;4.82;;
30010;SDS011;16851;53.564;8.112;2022-08-19T02:48:12;10.10;;;4.78;;
30010;SDS011;16851;53.564;8.112;2022-08-19T02:53:23;8.57;;;5.85;;
30010;SDS011;16851;53.564;8.112;2022-08-19T02:58:27;10.18;;;6.25;;
30010;SDS011;16851;53.564;8.112;2022-08-19T03:03:33;7.07;;;5.00;;
30010;SDS011;16851;53.564;8.112;2022-08-19T03:08:36;9.35;;;5.78;;
30010;SDS011;16851;53.564;8.112;2022-08-19T03:13:41;7.80;;;5.70;;
30010;SDS011;16851;53.564;8.112;2022-08-19T03:18:48;7.53;;;6.07;;
30010;SDS011;16851;53.564;8.112;2022-08-19T03:23:54;10.45;;;6.80;;
30010;SDS011;16851;53.564;8.112;2022-08-19T03:29:02;7.03;;;5.07;;
30010;SDS011;16851;53.564;8.112;2022-08-19T03:34:08;6.28;;;4.88;;
30010;SDS011;16851;53.564;8.112;2022-08-19T03:39:16;7.18;;;5.10;;
30010;SDS011;16851;53.564;8.112;2022-08-19T03:44:21;11.55;;;8.18;;
30010;SDS011;16851;53.564;8.112;2022-08-19T03:49:28;8.30;;;6.70;;
30010;SDS011;16851;53.564;8.112;2022-08-19T03:54:31;10.25;;;7.72;;
30010;SDS011;16851;53.564;8.112;2022-08-19T03:59:36;9.02;;;7.20;;
30010;SDS011;16851;53.564;8.112;2022-08-19T04:04:43;10.00;;;7.75;;
30010;SDS011;16851;53.564;8.112;2022-08-19T04:09:45;11.52;;;10.32;;
30010;SDS011;16851;53.564;8.112;2022-08-19T04:14:47;19.52;;;13.82;;
30010;SDS011;16851;53.564;8.112;2022-08-19T04:19:51;14.45;;;11.55;;
30010;SDS011;16851;53.564;8.112;2022-08-19T04:24:55;17.10;;;13.32;;
30010;SDS011;16851;53.564;8.112;2022-08-19T04:29:59;19.40;;;14.18;;
30010;SDS011;16851;53.564;8.112;2022-08-19T04:35:04;19.98;;;15.73;;
30010;SDS011;16851;53.564;8.112;2022-08-19T04:40:18;14.80;;;13.10;;
30010;SDS011;16851;53.564;8.112;2022-08-19T04:45:45;14.30;;;12.80;;
30010;SDS011;16851;53.564;8.112;2022-08-19T04:50:53;22.67;;;17.67;;
30010;SDS011;16851;53.564;8.112;2022-08-19T05:01:12;17.25;;;14.88;;
30010;SDS011;16851;53.564;8.112;2022-08-19T05:06:26;19.13;;;15.10;;
30010;SDS011;16851;53.564;8.112;2022-08-19T05:11:31;23.90;;;16.58;;
30010;SDS011;16851;53.564;8.112;2022-08-19T05:16:35;18.40;;;15.30;;
30010;SDS011;16851;53.564;8.112;2022-08-19T05:21:38;18.38;;;14.18;;
30010;SDS011;16851;53.564;8.112;2022-08-19T05:26:59;17.65;;;13.57;;
30010;SDS011;16851;53.564;8.112;2022-08-19T05:32:04;21.02;;;14.52;;
30010;SDS011;16851;53.564;8.112;2022-08-19T05:37:10;19.63;;;14.23;;
30010;SDS011;16851;53.564;8.112;2022-08-19T05:42:12;19.75;;;13.88;;
30010;SDS011;16851;53.564;8.112;2022-08-19T05:47:18;19.42;;;13.75;;
30010;SDS011;16851;53.564;8.112;2022-08-19T05:52:30;18.80;;;13.45;;
30010;SDS011;16851;53.564;8.112;2022-08-19T05:57:32;16.00;;;13.60;;
30010;SDS011;16851;53.564;8.112;2022-08-19T06:02:36;16.98;;;13.80;;
30010;SDS011;16851;53.564;8.112;2022-08-19T06:07:44;16.70;;;12.65;;
30010;SDS011;16851;53.564;8.112;2022-08-19T06:12:46;14.43;;;12.57;;
30010;SDS011;16851;53.564;8.112;2022-08-19T06:17:50;18.00;;;12.60;;
30010;SDS011;16851;53.564;8.112;2022-08-19T06:22:54;17.75;;;13.40;;
30010;SDS011;16851;53.564;8.112;2022-08-19T06:27:56;14.77;;;13.00;;
30010;SDS011;16851;53.564;8.112;2022-08-19T06:33:15;18.73;;;13.15;;
30010;SDS011;16851;53.564;8.112;2022-08-19T06:38:18;14.45;;;12.77;;
30010;SDS011;16851;53.564;8.112;2022-08-19T06:43:26;16.42;;;12.60;;
30010;SDS011;16851;53.564;8.112;2022-08-19T06:48:30;13.02;;;11.15;;
30010;SDS011;16851;53.564;8.112;2022-08-19T06:53:33;13.40;;;10.95;;
30010;SDS011;16851;53.564;8.112;2022-08-19T06:58:37;12.48;;;9.70;;
30010;SDS011;16851;53.564;8.112;2022-08-19T07:03:39;10.32;;;9.30;;
30010;SDS011;16851;53.564;8.112;2022-08-19T07:08:46;11.68;;;9.98;;
30010;SDS011;16851;53.564;8.112;2022-08-19T07:13:50;15.25;;;9.30;;
30010;SDS011;16851;53.564;8.112;2022-08-19T07:18:54;11.27;;;8.13;;
30010;SDS011;16851;53.564;8.112;2022-08-19T07:24:00;8.43;;;5.40;;
30010;SDS011;16851;53.564;8.112;2022-08-19T07:29:07;6.15;;;4.50;;
30010;SDS011;16851;53.564;8.112;2022-08-19T07:34:17;17.10;;;4.85;;
30010;SDS011;16851;53.564;8.112;2022-08-19T07:39:24;5.60;;;3.85;;
30010;SDS011;16851;53.564;8.112;2022-08-19T07:44:29;8.02;;;3.65;;
30010;SDS011;16851;53.564;8.112;2022-08-19T07:49:33;4.78;;;3.17;;
30010;SDS011;16851;53.564;8.112;2022-08-19T07:54:42;10.70;;;3.90;;
30010;SDS011;16851;53.564;8.112;2022-08-19T07:59:45;5.93;;;2.90;;
30010;SDS011;16851;53.564;8.112;2022-08-19T08:04:48;3.63;;;2.03;;
30010;SDS011;16851;53.564;8.112;2022-08-19T08:10:08;10.05;;;2.65;;
30010;SDS011;16851;53.564;8.112;2022-08-19T08:15:21;7.65;;;2.40;;
30010;SDS011;16851;53.564;8.112;2022-08-19T08:20:29;7.65;;;2.20;;
30010;SDS011;16851;53.564;8.112;2022-08-19T08:25:33;5.57;;;2.47;;
30010;SDS011;16851;53.564;8.112;2022-08-19T08:30:39;7.68;;;1.92;;
30010;SDS011;16851;53.564;8.112;2022-08-19T08:35:45;5.70;;;1.80;;
30010;SDS011;16851;53.564;8.112;2022-08-19T08:40:49;6.30;;;1.98;;
30010;SDS011;16851;53.564;8.112;2022-08-19T08:46:01;4.78;;;1.95;;
30010;SDS011;16851;53.564;8.112;2022-08-19T08:51:40;4.18;;;1.90;;
30010;SDS011;16851;53.564;8.112;2022-08-19T08:57:04;5.03;;;1.50;;
30010;SDS011;16851;53.564;8.112;2022-08-19T09:02:19;4.57;;;2.40;;
30010;SDS011;16851;53.564;8.112;2022-08-19T09:12:54;4.15;;;1.70;;
30010;SDS011;16851;53.564;8.112;2022-08-19T09:18:10;4.80;;;1.85;;
30010;SDS011;16851;53.564;8.112;2022-08-19T09:23:19;5.90;;;1.80;;
30010;SDS011;16851;53.564;8.112;2022-08-19T09:28:32;4.50;;;1.60;;
30010;SDS011;16851;53.564;8.112;2022-08-19T09:33:34;4.55;;;1.85;;
30010;SDS011;16851;53.564;8.112;2022-08-19T09:38:36;4.35;;;1.65;;
30010;SDS011;16851;53.564;8.112;2022-08-19T09:43:46;4.78;;;1.70;;
30010;SDS011;16851;53.564;8.112;2022-08-19T09:48:59;5.85;;;1.50;;
30010;SDS011;16851;53.564;8.112;2022-08-19T09:54:07;5.47;;;1.83;;
30010;SDS011;16851;53.564;8.112;2022-08-19T09:59:11;4.38;;;1.58;;
30010;SDS011;16851;53.564;8.112;2022-08-19T10:04:13;4.20;;;1.60;;
30010;SDS011;16851;53.564;8.112;2022-08-19T10:09:25;3.03;;;1.70;;
30010;SDS011;16851;53.564;8.112;2022-08-19T10:14:36;5.13;;;1.73;;
30010;SDS011;16851;53.564;8.112;2022-08-19T10:19:39;3.58;;;1.52;;
30010;SDS011;16851;53.564;8.112;2022-08-19T10:24:57;3.65;;;1.38;;
30010;SDS011;16851;53.564;8.112;2022-08-19T10:29:59;6.13;;;1.48;;
30010;SDS011;16851;53.564;8.112;2022-08-19T10:35:03;3.15;;;1.40;;
30010;SDS011;16851;53.564;8.112;2022-08-19T10:40:09;2.88;;;1.35;;
30010;SDS011;16851;53.564;8.112;2022-08-19T10:45:14;3.33;;;1.48;;
30010;SDS011;16851;53.564;8.112;2022-08-19T10:50:16;5.45;;;1.52;;
30010;SDS011;16851;53.564;8.112;2022-08-19T10:55:44;4.00;;;1.42;;
30010;SDS011;16851;53.564;8.112;2022-08-19T11:01:04;6.13;;;1.42;;
30010;SDS011;16851;53.564;8.112;2022-08-19T11:06:09;3.17;;;1.40;;
30010;SDS011;16851;53.564;8.112;2022-08-19T11:11:11;4.55;;;1.88;;
30010;SDS011;16851;53.564;8.112;2022-08-19T11:16:14;3.47;;;1.73;;
30010;SDS011;16851;53.564;8.112;2022-08-19T11:21:22;5.20;;;1.63;;
30010;SDS011;16851;53.564;8.112;2022-08-19T11:26:29;2.97;;;1.70;;
30010;SDS011;16851;53.564;8.112;2022-08-19T11:31:34;4.37;;;2.00;;
30010;SDS011;16851;53.564;8.112;2022-08-19T11:36:41;4.53;;;1.80;;
30010;SDS011;16851;53.564;8.112;2022-08-19T11:41:47;1.92;;;1.40;;
30010;SDS011;16851;53.564;8.112;2022-08-19T11:46:51;4.15;;;1.40;;
30010;SDS011;16851;53.564;8.112;2022-08-19T11:51:54;4.80;;;1.50;;
30010;SDS011;16851;53.564;8.112;2022-08-19T11:56:55;4.18;;;1.33;;
30010;SDS011;16851;53.564;8.112;2022-08-19T12:01:57;4.72;;;1.40;;
30010;SDS011;16851;53.564;8.112;2022-08-19T12:07:00;4.65;;;1.70;;
30010;SDS011;16851;53.564;8.112;2022-08-19T12:12:03;5.22;;;1.60;;
30010;SDS011;16851;53.564;8.112;2022-08-19T12:17:07;3.53;;;1.60;;
30010;SDS011;16851;53.564;8.112;2022-08-19T12:22:17;3.63;;;1.40;;
30010;SDS011;16851;53.564;8.112;2022-08-19T12:27:24;2.67;;;1.40;;
30010;SDS011;16851;53.564;8.112;2022-08-19T12:32:44;4.10;;;1.50;;
30010;SDS011;16851;53.564;8.112;2022-08-19T12:37:49;3.47;;;1.50;;
30010;SDS011;16851;53.564;8.112;2022-08-19T12:42:58;3.03;;;1.50;;
30010;SDS011;16851;53.564;8.112;2022-08-19T12:48:00;3.08;;;1.33;;
30010;SDS011;16851;53.564;8.112;2022-08-19T12:53:22;3.75;;;1.20;;
30010;SDS011;16851;53.564;8.112;2022-08-19T12:58:24;2.65;;;0.90;;
30010;SDS011;16851;53.564;8.112;2022-08-19T13:03:29;4.28;;;1.20;;
30010;SDS011;16851;53.564;8.112;2022-08-19T13:08:32;3.22;;;1.35;;
30010;SDS011;16851;53.564;8.112;2022-08-19T13:13:33;2.30;;;1.10;;
30010;SDS011;16851;53.564;8.112;2022-08-19T13:18:40;3.13;;;1.27;;
30010;SDS011;16851;53.564;8.112;2022-08-19T13:23:49;3.00;;;1.65;;
30010;SDS011;16851;53.564;8.112;2022-08-19T13:28:54;2.67;;;1.05;;
30010;SDS011;16851;53.564;8.112;2022-08-19T13:34:16;2.55;;;1.30;;
30010;SDS011;16851;53.564;8.112;2022-08-19T13:39:21;3.75;;;1.20;;
30010;SDS011;16851;53.564;8.112;2022-08-19T13:44:28;6.38;;;1.63;;
30010;SDS011;16851;53.564;8.112;2022-08-19T13:49:34;4.55;;;1.52;;
30010;SDS011;16851;53.564;8.112;2022-08-19T13:54:37;4.93;;;1.35;;
30010;SDS011;16851;53.564;8.112;2022-08-19T13:59:41;3.38;;;1.30;;
30010;SDS011;16851;53.564;8.112;2022-08-19T14:04:43;4.43;;;1.40;;
30010;SDS011;16851;53.564;8.112;2022-08-19T14:09:45;5.22;;;1.48;;
30010;SDS011;16851;53.564;8.112;2022-08-19T14:14:52;4.80;;;1.10;;
30010;SDS011;16851;53.564;8.112;2022-08-19T14:20:00;3.58;;;1.20;;
30010;SDS011;16851;53.564;8.112;2022-08-19T14:25:12;5.32;;;1.50;;
30010;SDS011;16851;53.564;8.112;2022-08-19T14:30:17;6.22;;;1.88;;
30010;SDS011;16851;53.564;8.112;2022-08-19T14:35:23;7.22;;;1.63;;
30010;SDS011;16851;53.564;8.112;2022-08-19T14:40:28;3.78;;;1.60;;
30010;SDS011;16851;53.564;8.112;2022-08-19T14:45:32;6.13;;;1.65;;
30010;SDS011;16851;53.564;8.112;2022-08-19T14:50:37;7.88;;;2.30;;
30010;SDS011;16851;53.564;8.112;2022-08-19T14:55:43;3.72;;;2.03;;
30010;SDS011;16851;53.564;8.112;2022-08-19T15:00:48;6.13;;;2.17;;
30010;SDS011;16851;53.564;8.112;2022-08-19T15:05:54;10.82;;;2.13;;
30010;SDS011;16851;53.564;8.112;2022-08-19T15:10:59;3.70;;;1.45;;
30010;SDS011;16851;53.564;8.112;2022-08-19T15:16:01;3.45;;;1.38;;
30010;SDS011;16851;53.564;8.112;2022-08-19T15:21:08;4.03;;;1.20;;
30010;SDS011;16851;53.564;8.112;2022-08-19T15:26:18;7.75;;;1.73;;
30010;SDS011;16851;53.564;8.112;2022-08-19T15:31:23;6.28;;;1.52;;
30010;SDS011;16851;53.564;8.112;2022-08-19T15:36:31;5.22;;;1.40;;
30010;SDS011;16851;53.564;8.112;2022-08-19T15:41:33;2.65;;;1.10;;
30010;SDS011;16851;53.564;8.112;2022-08-19T15:46:38;3.67;;;1.30;;
30010;SDS011;16851;53.564;8.112;2022-08-19T15:51:42;2.03;;;1.23;;
30010;SDS011;16851;53.564;8.112;2022-08-19T15:56:46;4.00;;;1.38;;
30010;SDS011;16851;53.564;8.112;2022-08-19T16:02:12;4.68;;;1.60;;
30010;SDS011;16851;53.564;8.112;2022-08-19T16:07:32;3.42;;;1.20;;
30010;SDS011;16851;53.564;8.112;2022-08-19T16:12:34;1.90;;;0.90;;
30010;SDS011;16851;53.564;8.112;2022-08-19T16:17:41;1.58;;;0.90;;
30010;SDS011;16851;53.564;8.112;2022-08-19T16:22:57;2.42;;;1.08;;
30010;SDS011;16851;53.564;8.112;2022-08-19T16:28:02;4.78;;;1.75;;
30010;SDS011;16851;53.564;8.112;2022-08-19T16:33:09;5.45;;;2.33;;
30010;SDS011;16851;53.564;8.112;2022-08-19T16:38:12;4.32;;;1.60;;
30010;SDS011;16851;53.564;8.112;2022-08-19T16:43:16;2.45;;;1.20;;
30010;SDS011;16851;53.564;8.112;2022-08-19T16:48:20;3.58;;;1.40;;
30010;SDS011;16851;53.564;8.112;2022-08-19T16:53:26;3.35;;;1.90;;
30010;SDS011;16851;53.564;8.112;2022-08-19T16:58:32;9.68;;;1.90;;
30010;SDS011;16851;53.564;8.112;2022-08-19T17:03:39;9.07;;;1.80;;
30010;SDS011;16851;53.564;8.112;2022-08-19T17:08:44;5.90;;;1.30;;
30010;SDS011;16851;53.564;8.112;2022-08-19T17:13:54;2.72;;;1.30;;
30010;SDS011;16851;53.564;8.112;2022-08-19T17:18:59;3.75;;;1.45;;
30010;SDS011;16851;53.564;8.112;2022-08-19T17:24:04;2.00;;;1.30;;
30010;SDS011;16851;53.564;8.112;2022-08-19T17:29:08;2.33;;;1.10;;
30010;SDS011;16851;53.564;8.112;2022-08-19T17:34:13;4.50;;;1.20;;
30010;SDS011;16851;53.564;8.112;2022-08-19T17:39:17;5.43;;;1.40;;
30010;SDS011;16851;53.564;8.112;2022-08-19T17:44:21;2.78;;;1.20;;
30010;SDS011;16851;53.564;8.112;2022-08-19T17:49:28;2.22;;;1.55;;
30010;SDS011;16851;53.564;8.112;2022-08-19T17:54:33;6.47;;;1.40;;
30010;SDS011;16851;53.564;8.112;2022-08-19T17:59:40;1.40;;;1.30;;
30010;SDS011;16851;53.564;8.112;2022-08-19T18:04:49;3.03;;;1.60;;
30010;SDS011;16851;53.564;8.112;2022-08-19T18:09:56;5.22;;;2.17;;
30010;SDS011;16851;53.564;8.112;2022-08-19T18:15:05;3.65;;;2.50;;
30010;SDS011;16851;53.564;8.112;2022-08-19T18:20:11;5.10;;;2.05;;
30010;SDS011;16851;53.564;8.112;2022-08-19T18:25:26;2.40;;;2.00;;
30010;SDS011;16851;53.564;8.112;2022-08-19T18:30:28;5.35;;;2.90;;
30010;SDS011;16851;53.564;8.112;2022-08-19T18:35:34;5.10;;;2.75;;
30010;SDS011;16851;53.564;8.112;2022-08-19T18:40:39;5.20;;;3.33;;
30010;SDS011;16851;53.564;8.112;2022-08-19T18:46:13;7.57;;;4.05;;
30010;SDS011;16851;53.564;8.112;2022-08-19T18:51:40;5.50;;;3.20;;
30010;SDS011;16851;53.564;8.112;2022-08-19T18:56:42;5.70;;;3.50;;
30010;SDS011;16851;53.564;8.112;2022-08-19T19:01:51;5.13;;;2.85;;
30010;SDS011;16851;53.564;8.112;2022-08-19T19:06:59;4.18;;;3.03;;
30010;SDS011;16851;53.564;8.112;2022-08-19T19:12:04;4.18;;;3.22;;
30010;SDS011;16851;53.564;8.112;2022-08-19T19:17:12;5.88;;;3.30;;
30010;SDS011;16851;53.564;8.112;2022-08-19T19:22:17;6.22;;;3.92;;
30010;SDS011;16851;53.564;8.112;2022-08-19T19:27:21;6.28;;;3.33;;
30010;SDS011;16851;53.564;8.112;2022-08-19T19:32:24;5.28;;;3.25;;
30010;SDS011;16851;53.564;8.112;2022-08-19T19:37:39;5.32;;;3.40;;
30010;SDS011;16851;53.564;8.112;2022-08-19T19:42:40;5.90;;;4.10;;
30010;SDS011;16851;53.564;8.112;2022-08-19T19:47:48;5.97;;;3.63;;
30010;SDS011;16851;53.564;8.112;2022-08-19T19:52:50;5.65;;;4.05;;
30010;SDS011;16851;53.564;8.112;2022-08-19T19:57:53;6.00;;;4.25;;
30010;SDS011;16851;53.564;8.112;2022-08-19T20:02:55;6.53;;;4.45;;
30010;SDS011;16851;53.564;8.112;2022-08-19T20:07:57;5.32;;;4.47;;
30010;SDS011;16851;53.564;8.112;2022-08-19T20:13:20;6.85;;;6.15;;
30010;SDS011;16851;53.564;8.112;2022-08-19T20:18:24;6.57;;;5.78;;
30010;SDS011;16851;53.564;8.112;2022-08-19T20:23:28;9.35;;;7.50;;
30010;SDS011;16851;53.564;8.112;2022-08-19T20:28:35;9.07;;;6.57;;
30010;SDS011;16851;53.564;8.112;2022-08-19T20:33:40;8.80;;;7.13;;
30010;SDS011;16851;53.564;8.112;2022-08-19T20:38:42;9.32;;;7.43;;
30010;SDS011;16851;53.564;8.112;2022-08-19T20:43:44;10.60;;;9.05;;
30010;SDS011;16851;53.564;8.112;2022-08-19T20:48:46;8.65;;;7.80;;
30010;SDS011;16851;53.564;8.112;2022-08-19T20:53:49;10.93;;;8.82;;
30010;SDS011;16851;53.564;8.112;2022-08-19T20:58:54;10.32;;;9.23;;
30010;SDS011;16851;53.564;8.112;2022-08-19T21:04:03;15.88;;;13.55;;
30010;SDS011;16851;53.564;8.112;2022-08-19T21:09:07;14.02;;;12.50;;
30010;SDS011;16851;53.564;8.112;2022-08-19T21:14:17;13.02;;;11.63;;
30010;SDS011;16851;53.564;8.112;2022-08-19T21:19:25;13.38;;;12.07;;
30010;SDS011;16851;53.564;8.112;2022-08-19T21:24:30;16.15;;;13.73;;
30010;SDS011;16851;53.564;8.112;2022-08-19T21:29:34;14.80;;;12.88;;
30010;SDS011;16851;53.564;8.112;2022-08-19T21:34:42;14.23;;;12.73;;
30010;SDS011;16851;53.564;8.112;2022-08-19T21:39:47;18.08;;;13.40;;
30010;SDS011;16851;53.564;8.112;2022-08-19T21:44:58;15.77;;;13.80;;
30010;SDS011;16851;53.564;8.112;2022-08-19T21:50:00;19.40;;;14.23;;
30010;SDS011;16851;53.564;8.112;2022-08-19T21:55:06;21.75;;;15.68;;
30010;SDS011;16851;53.564;8.112;2022-08-19T22:00:14;20.27;;;14.85;;
30010;SDS011;16851;53.564;8.112;2022-08-19T22:05:30;19.95;;;15.20;;
30010;SDS011;16851;53.564;8.112;2022-08-19T22:10:33;18.58;;;15.32;;
30010;SDS011;16851;53.564;8.112;2022-08-19T22:15:40;18.83;;;14.77;;
30010;SDS011;16851;53.564;8.112;2022-08-19T22:20:42;21.63;;;16.02;;
30010;SDS011;16851;53.564;8.112;2022-08-19T22:25:45;16.90;;;14.55;;
30010;SDS011;16851;53.564;8.112;2022-08-19T22:30:49;17.95;;;15.73;;
30010;SDS011;16851;53.564;8.112;2022-08-19T22:35:52;21.67;;;17.88;;
30010;SDS011;16851;53.564;8.112;2022-08-19T22:40:56;17.27;;;15.48;;
30010;SDS011;16851;53.564;8.112;2022-08-19T22:46:00;20.40;;;16.98;;
30010;SDS011;16851;53.564;8.112;2022-08-19T22:51:05;20.33;;;15.85;;
30010;SDS011;16851;53.564;8.112;2022-08-19T22:56:29;19.60;;;15.32;;
30010;SDS011;16851;53.564;8.112;2022-08-19T23:01:34;18.25;;;15.07;;
30010;SDS011;16851;53.564;8.112;2022-08-19T23:06:42;18.20;;;15.60;;
30010;SDS011;16851;53.564;8.112;2022-08-19T23:11:46;19.27;;;17.13;;
30010;SDS011;16851;53.564;8.112;2022-08-19T23:16:48;21.23;;;17.90;;
30010;SDS011;16851;53.564;8.112;2022-08-19T23:21:58;20.20;;;15.70;;
30010;SDS011;16851;53.564;8.112;2022-08-19T23:27:03;20.10;;;17.45;;
30010;SDS011;16851;53.564;8.112;2022-08-19T23:32:24;22.38;;;16.85;;
30010;SDS011;16851;53.564;8.112;2022-08-19T23:37:31;21.08;;;17.98;;
30010;SDS011;16851;53.564;8.112;2022-08-19T23:42:40;22.42;;;18.77;;
30010;SDS011;16851;53.564;8.112;2022-08-19T23:47:47;23.55;;;16.80;;
30010;SDS011;16851;53.564;8.112;2022-08-19T23:52:53;23.10;;;18.55;;
30010;SDS011;16851;53.564;8.112;2022-08-19T23:57:58;24.08;;;18.02;;
